Guy V. Molinari — WDB8295 — position and weather

sailwx.info

Track history (hours):
 
Tides and Currents Weather Stations Pressure Air Temp Water Temp Dewpoint Dewpoint Depression Visibility Wind Speed Wind Dir Waves Ship Positions

Guy V. Molinari

Owner: CITY OF NEW YORK, Brooklyn, NY. More information available from US FCC via Universal Licensing System and Coast Guard Vessel Documentation Center.

Last reported at 2017-Dec-11 17:00 UTC. Time now 2017-Dec-13 01:38 UTC.
Position N 40°39' W 074°04'.

Length 95 m; draft 4.1 m.

Type: Passenger vessel. MMSI: 366952790.

Date/timePositionNaut miles runAvg speedWind from/ knotsBaromVisibWave heightAir tempDewpointWater temp
2017-Dec-11 17:00N 40°39' W 074°04'4 8.6
2017-Dec-11 16:30N 40°42' W 074°01'4 8.6
2017-Dec-11 16:01N 40°39' W 074°04'0 0.0
2017-Dec-11 15:31N 40°39' W 074°04'4 8.6
2017-Dec-11 15:01N 40°42' W 074°01'4 8.6
2017-Dec-11 14:31N 40°39' W 074°04'2 4.7
2017-Dec-11 14:00N 40°41' W 074°02'0 0.7
2017-Dec-11 13:31N 40°41' W 074°02'1 2.9
2017-Dec-11 13:00N 40°40' W 074°03'2 3.3
2017-Dec-11 12:31N 40°41' W 074°02'3 5.8
2017-Dec-11 12:00N 40°39' W 074°04'4 8.6
2017-Dec-11 11:30N 40°42' W 074°01'4 8.6
2017-Dec-11 11:00N 40°39' W 074°04'0 0.2
2017-Dec-11 10:30N 40°39' W 074°04'0 0.0
2017-Dec-11 10:00N 40°39' W 074°04'0 0.0
2017-Dec-11 09:30N 40°39' W 074°04'0 0.0
2017-Dec-11 09:00N 40°39' W 074°04'0 0.0
2017-Dec-11 08:30N 40°39' W 074°04'0 0.0
2017-Dec-11 08:00N 40°39' W 074°04'0 0.0
2017-Dec-11 07:30N 40°39' W 074°04'0 0.0
2017-Dec-11 07:00N 40°39' W 074°04'0 0.0
2017-Dec-11 06:30N 40°39' W 074°04'0 0.0
2017-Dec-11 06:00N 40°39' W 074°04'0 0.0
2017-Dec-11 05:30N 40°39' W 074°04'0 0.0
2017-Dec-11 05:00N 40°39' W 074°04'0 0.0
2017-Dec-11 04:30N 40°39' W 074°04'0 0.0
2017-Dec-11 04:00N 40°39' W 074°04'0 0.0
2017-Dec-11 03:30N 40°39' W 074°04'0 0.0
2017-Dec-11 03:00N 40°39' W 074°04'0 0.0
2017-Dec-11 02:30N 40°39' W 074°04'0 0.0
2017-Dec-11 02:00N 40°39' W 074°04'0 0.0
2017-Dec-11 01:30N 40°39' W 074°04'0 0.0
2017-Dec-11 01:00N 40°39' W 074°04'0 0.0
2017-Dec-11 00:30N 40°39' W 074°04'0 0.0
2017-Dec-11 00:00N 40°39' W 074°04'0 0.0
2017-Dec-10 23:30N 40°39' W 074°04'0 0.0
2017-Dec-10 23:00N 40°39' W 074°04'0 0.0
2017-Dec-10 22:30N 40°39' W 074°04'0 0.0
2017-Dec-10 22:00N 40°39' W 074°04'0 0.0
2017-Dec-10 21:30N 40°39' W 074°04'0 0.0
2017-Dec-10 21:00N 40°39' W 074°04'0 0.0
2017-Dec-10 20:30N 40°39' W 074°04'0 0.0
2017-Dec-10 20:00N 40°39' W 074°04'0 0.0
2017-Dec-10 19:30N 40°39' W 074°04'0 0.0
2017-Dec-10 19:00N 40°39' W 074°04'0 0.0
2017-Dec-10 18:30N 40°39' W 074°04'0 0.0
2017-Dec-10 18:00N 40°39' W 074°04'0 0.0
2017-Dec-10 17:30N 40°39' W 074°04'0 0.0
2017-Dec-10 17:00N 40°39' W 074°04'0 0.0
2017-Dec-10 16:30N 40°39' W 074°04'0 0.0
2017-Dec-10 16:00N 40°39' W 074°04'0 0.0
2017-Dec-10 15:30N 40°39' W 074°04'0 0.0
2017-Dec-10 15:00N 40°39' W 074°04'0 0.0
2017-Dec-10 14:30N 40°39' W 074°04'0 0.0
2017-Dec-10 14:00N 40°39' W 074°04'0 0.0
2017-Dec-10 13:30N 40°39' W 074°04'0 0.0
2017-Dec-10 13:00N 40°39' W 074°04'0 0.0
2017-Dec-10 12:30N 40°39' W 074°04'0 0.0
2017-Dec-10 12:00N 40°39' W 074°04'0 0.0
2017-Dec-10 11:30N 40°39' W 074°04'0 0.0
2017-Dec-10 11:00N 40°39' W 074°04'0 0.0
2017-Dec-10 10:30N 40°39' W 074°04'0 0.0
2017-Dec-10 10:00N 40°39' W 074°04'0 0.0
2017-Dec-10 09:30N 40°39' W 074°04'0 0.0
2017-Dec-10 09:00N 40°39' W 074°04'0 0.0
2017-Dec-10 08:30N 40°39' W 074°04'0 0.0
2017-Dec-10 08:00N 40°39' W 074°04'0 0.0
2017-Dec-10 07:30N 40°39' W 074°04'0 0.0
2017-Dec-10 07:00N 40°39' W 074°04'0 0.0
2017-Dec-10 06:30N 40°39' W 074°04'0 0.0
2017-Dec-10 06:00N 40°39' W 074°04'0 0.0
2017-Dec-10 05:30N 40°39' W 074°04'0 0.0
2017-Dec-10 05:00N 40°39' W 074°04'0 0.0
2017-Dec-10 04:30N 40°39' W 074°04'0 0.0
2017-Dec-10 04:00N 40°39' W 074°04'0 0.0
2017-Dec-10 03:30N 40°39' W 074°04'0 0.0
2017-Dec-10 03:00N 40°39' W 074°04'0 0.0
2017-Dec-10 02:30N 40°39' W 074°04'0 0.0
2017-Dec-10 02:00N 40°39' W 074°04'0 0.0
2017-Dec-10 01:30N 40°39' W 074°04'0 0.0
2017-Dec-10 01:00N 40°39' W 074°04'0 0.0
2017-Dec-10 00:30N 40°39' W 074°04'0 0.0
2017-Dec-10 00:00N 40°39' W 074°04'0 0.0
2017-Dec-09 23:30N 40°39' W 074°04'0 0.0
2017-Dec-09 23:00N 40°39' W 074°04'0 0.0
2017-Dec-09 22:30N 40°39' W 074°04'0 0.0
2017-Dec-09 22:00N 40°39' W 074°04'0 0.0
2017-Dec-09 21:30N 40°39' W 074°04'0 0.0
2017-Dec-09 21:00N 40°39' W 074°04'0 0.0
2017-Dec-09 20:30N 40°39' W 074°04'0 0.0
2017-Dec-09 20:00N 40°39' W 074°04'0 0.0
2017-Dec-09 19:30N 40°39' W 074°04'0 0.0
2017-Dec-09 19:00N 40°39' W 074°04'0 0.0
2017-Dec-09 18:30N 40°39' W 074°04'0 0.0
2017-Dec-09 18:00N 40°39' W 074°04'0 0.0
2017-Dec-09 17:30N 40°39' W 074°04'0 0.0
2017-Dec-09 17:00N 40°39' W 074°04'0 0.0
2017-Dec-09 16:30N 40°39' W 074°04'0 0.0
2017-Dec-09 16:00N 40°39' W 074°04'0 0.0
2017-Dec-09 15:30N 40°39' W 074°04'0 0.0
2017-Dec-09 15:00N 40°39' W 074°04'0 0.0
2017-Dec-09 14:30N 40°39' W 074°04'0 0.0
2017-Dec-09 14:00N 40°39' W 074°04'0 0.0
2017-Dec-09 13:30N 40°39' W 074°04'0 0.0
2017-Dec-09 13:00N 40°39' W 074°04'0 0.0
2017-Dec-09 12:30N 40°39' W 074°04'0 0.0
2017-Dec-09 12:00N 40°39' W 074°04'0 0.0
2017-Dec-09 11:30N 40°39' W 074°04'0 0.0
2017-Dec-09 11:00N 40°39' W 074°04'0 0.0
2017-Dec-09 10:30N 40°39' W 074°04'0 0.0
2017-Dec-09 10:00N 40°39' W 074°04'0 0.0
2017-Dec-09 09:30N 40°39' W 074°04'0 0.0
2017-Dec-09 09:00N 40°39' W 074°04'0 0.0
2017-Dec-09 08:30N 40°39' W 074°04'0 0.0
2017-Dec-09 08:00N 40°39' W 074°04'0 0.0
2017-Dec-09 07:30N 40°39' W 074°04'0 0.0
2017-Dec-09 07:00N 40°39' W 074°04'0 0.0
2017-Dec-09 06:30N 40°39' W 074°04'0 0.0
2017-Dec-09 06:00N 40°39' W 074°04'0 0.0
2017-Dec-09 05:30N 40°39' W 074°04'0 0.0
2017-Dec-09 05:00N 40°39' W 074°04'0 0.0
2017-Dec-09 04:30N 40°39' W 074°04'0 0.0
2017-Dec-09 04:00N 40°39' W 074°04'0 0.0
2017-Dec-09 03:30N 40°39' W 074°04'0 0.1
2017-Dec-09 01:57N 40°39' W 074°04'4 9.5
2017-Dec-09 01:31N 40°42' W 074°01'4 8.5
2017-Dec-09 01:00N 40°39' W 074°04'3 5.2
2017-Dec-09 00:30N 40°41' W 074°02'0 0.6
2017-Dec-09 00:01N 40°41' W 074°02'1 2.6
2017-Dec-08 23:31N 40°40' W 074°03'2 3.1
2017-Dec-08 23:00N 40°41' W 074°02'2 3.5
2017-Dec-08 22:31N 40°40' W 074°03'1 1.8
2017-Dec-08 22:01N 40°40' W 074°02'2 4.6
2017-Dec-08 21:30N 40°39' W 074°04'0 0.0
2017-Dec-08 21:00N 40°39' W 074°04'4 8.6
2017-Dec-08 20:30N 40°42' W 074°01'4 8.6
2017-Dec-08 20:00N 40°39' W 074°04'0 0.5
2017-Dec-08 19:31N 40°39' W 074°04'0 0.7
2017-Dec-08 19:01N 40°39' W 074°04'0 0.0
2017-Dec-08 18:30N 40°39' W 074°04'0 0.0
2017-Dec-08 18:01N 40°39' W 074°04'0 0.0
2017-Dec-08 17:31N 40°39' W 074°04'0 0.0
2017-Dec-08 17:00N 40°39' W 074°04'0 0.0
2017-Dec-08 16:30N 40°39' W 074°04'0 0.0
2017-Dec-08 16:01N 40°39' W 074°04'0 0.0
2017-Dec-08 15:30N 40°39' W 074°04'0 0.0
2017-Dec-08 15:00N 40°39' W 074°04'0 0.2
2017-Dec-08 14:30N 40°39' W 074°04'2 4.0
2017-Dec-08 14:00N 40°40' W 074°03'1 1.3
2017-Dec-08 13:30N 40°41' W 074°02'1 2.0
2017-Dec-08 13:01N 40°40' W 074°03'1 2.2
2017-Dec-08 12:31N 40°41' W 074°02'3 5.5
2017-Dec-08 12:01N 40°39' W 074°04'4 8.6
2017-Dec-08 11:30N 40°42' W 074°01'4 8.5
2017-Dec-08 11:00N 40°39' W 074°04'0 0.1
2017-Dec-08 10:30N 40°39' W 074°04'0 0.0
2017-Dec-08 10:00N 40°39' W 074°04'0 0.0
2017-Dec-08 09:30N 40°39' W 074°04'0 0.0
2017-Dec-08 09:00N 40°39' W 074°04'0 0.0
2017-Dec-08 08:28N 40°39' W 074°04'0 0.0
2017-Dec-08 07:58N 40°39' W 074°04'0 0.0
2017-Dec-08 07:28N 40°39' W 074°04'0 0.0
2017-Dec-08 06:58N 40°39' W 074°04'0 0.0
2017-Dec-08 06:28N 40°39' W 074°04'0 0.0
2017-Dec-08 05:58N 40°39' W 074°04'0 0.0
2017-Dec-08 05:28N 40°39' W 074°04'0 0.0
2017-Dec-08 04:58N 40°39' W 074°04'0 0.0
2017-Dec-08 04:28N 40°39' W 074°04'0 0.0
2017-Dec-08 03:58N 40°39' W 074°04'0 0.0
2017-Dec-08 03:28N 40°39' W 074°04'0 0.0
2017-Dec-08 02:58N 40°39' W 074°04'0 0.0
2017-Dec-08 02:30N 40°39' W 074°04'0 0.0
2017-Dec-08 02:00N 40°39' W 074°04'4 8.6
2017-Dec-08 01:30N 40°42' W 074°01'4 8.6
2017-Dec-08 01:00N 40°39' W 074°04'3 5.4
2017-Dec-08 00:30N 40°41' W 074°02'1 1.1
2017-Dec-08 00:00N 40°41' W 074°02'2 4.5
2017-Dec-07 23:30N 40°39' W 074°03'2 4.0
2017-Dec-07 23:00N 40°41' W 074°02'2 4.0
2017-Dec-07 22:30N 40°39' W 074°03'2 3.3
2017-Dec-07 22:00N 40°41' W 074°02'3 5.3
2017-Dec-07 21:30N 40°39' W 074°04'0 0.0
2017-Dec-07 21:00N 40°39' W 074°04'4 8.5
2017-Dec-07 20:30N 40°42' W 074°01'4 8.6
2017-Dec-07 20:01N 40°39' W 074°04'0 0.0
2017-Dec-07 19:31N 40°39' W 074°04'4 8.6
2017-Dec-07 19:01N 40°42' W 074°01'4 8.6
2017-Dec-07 18:30N 40°39' W 074°04'0 0.1
2017-Dec-07 18:01N 40°39' W 074°04'4 8.7
2017-Dec-07 17:30N 40°42' W 074°01'4 8.6
2017-Dec-07 17:00N 40°39' W 074°04'0 0.0
2017-Dec-07 16:30N 40°39' W 074°04'0 0.0
2017-Dec-07 16:00N 40°39' W 074°04'0 0.0
2017-Dec-07 15:30N 40°39' W 074°04'0 0.0
2017-Dec-07 15:00N 40°39' W 074°04'0 0.0
2017-Dec-07 14:30N 40°39' W 074°04'2 3.9
2017-Dec-07 14:01N 40°40' W 074°03'1 1.5
2017-Dec-07 13:31N 40°41' W 074°02'1 1.6
2017-Dec-07 13:00N 40°40' W 074°03'1 2.2
2017-Dec-07 12:30N 40°41' W 074°02'3 6.0
2017-Dec-07 12:00N 40°39' W 074°04'4 8.6
2017-Dec-07 11:30N 40°42' W 074°01'4 8.5
2017-Dec-07 11:00N 40°39' W 074°04'0 0.0
2017-Dec-07 10:30N 40°39' W 074°04'0 0.0
2017-Dec-07 10:00N 40°39' W 074°04'0 0.1
2017-Dec-07 09:30N 40°39' W 074°04'0 0.0
2017-Dec-07 09:00N 40°39' W 074°04'0 0.0
2017-Dec-07 08:30N 40°39' W 074°04'0 0.0
2017-Dec-07 08:00N 40°39' W 074°04'0 0.1
2017-Dec-07 07:30N 40°39' W 074°04'0 0.1
2017-Dec-07 06:59N 40°39' W 074°04'0 0.0
2017-Dec-07 06:29N 40°39' W 074°04'0 0.0
2017-Dec-07 05:59N 40°39' W 074°04'0 0.0
2017-Dec-07 05:29N 40°39' W 074°04'0 0.0
2017-Dec-07 04:59N 40°39' W 074°04'0 0.0
2017-Dec-07 04:29N 40°39' W 074°04'0 0.0
2017-Dec-07 03:59N 40°39' W 074°04'0 0.0
2017-Dec-07 03:29N 40°39' W 074°04'0 0.0
2017-Dec-07 02:59N 40°39' W 074°04'0 0.0
2017-Dec-07 02:30N 40°39' W 074°04'0 0.0
2017-Dec-07 02:00N 40°39' W 074°04'4 8.5
2017-Dec-07 01:30N 40°42' W 074°01'4 8.5
2017-Dec-07 01:00N 40°39' W 074°04'3 5.7
2017-Dec-07 00:30N 40°41' W 074°02'0 0.9
2017-Dec-07 00:01N 40°41' W 074°02'1 3.0
2017-Dec-06 23:31N 40°40' W 074°03'1 2.4
2017-Dec-06 23:01N 40°41' W 074°02'2 3.8
2017-Dec-06 22:31N 40°40' W 074°03'2 3.1
2017-Dec-06 22:01N 40°41' W 074°02'3 5.3
2017-Dec-06 21:30N 40°39' W 074°04'0 0.0
2017-Dec-06 21:00N 40°39' W 074°04'  
2017-Dec-04 08:35N 40°39' W 074°04'0 0.0
2017-Dec-04 08:31N 40°39' W 074°04'0 0.0
2017-Dec-04 08:00N 40°39' W 074°04'0 0.0
2017-Dec-04 07:30N 40°39' W 074°04'0 0.0
2017-Dec-04 07:00N 40°39' W 074°04'0 0.0
2017-Dec-04 06:31N 40°39' W 074°04'0 0.0
2017-Dec-04 04:53N 40°39' W 074°04'411.2
2017-Dec-04 04:30N 40°42' W 074°01'4 8.6
2017-Dec-04 04:01N 40°39' W 074°04'4 8.5
2017-Dec-04 03:30N 40°42' W 074°01'4 8.5
2017-Dec-04 03:00N 40°39' W 074°04'4 8.5
2017-Dec-04 02:31N 40°42' W 074°01'4 7.5
2017-Dec-04 01:56N 40°39' W 074°04'410.0
2017-Dec-04 01:30N 40°42' W 074°01'4 8.5
2017-Dec-04 01:00N 40°39' W 074°04'0 0.1
2017-Dec-04 00:30N 40°39' W 074°04'4 8.6
2017-Dec-04 00:01N 40°42' W 074°01'4 8.6
2017-Dec-03 23:30N 40°39' W 074°04'0 0.0
2017-Dec-03 23:00N 40°39' W 074°04'4 8.6
2017-Dec-03 22:30N 40°42' W 074°01'4 8.6
2017-Dec-03 22:00N 40°39' W 074°04'0 0.0
2017-Dec-03 21:30N 40°39' W 074°04'4 8.6
2017-Dec-03 21:01N 40°42' W 074°01'4 8.5
2017-Dec-03 20:30N 40°39' W 074°04'0 0.0
2017-Dec-03 19:53N 40°39' W 074°04'4 9.5
2017-Dec-03 19:26N 40°42' W 074°01'410.2
2017-Dec-03 19:00N 40°39' W 074°04'0 0.1
2017-Dec-03 18:30N 40°39' W 074°04'4 8.7
2017-Dec-03 18:00N 40°42' W 074°01'4 8.6
2017-Dec-03 17:30N 40°39' W 074°04'0 0.1
2017-Dec-03 17:00N 40°39' W 074°04'4 8.6
2017-Dec-03 16:31N 40°42' W 074°01'4 7.3
2017-Dec-03 15:55N 40°39' W 074°04'410.2
2017-Dec-03 15:30N 40°42' W 074°01'4 8.6
2017-Dec-03 15:01N 40°39' W 074°04'4 8.6
2017-Dec-03 14:30N 40°42' W 074°01'4 8.6
2017-Dec-03 14:00N 40°39' W 074°04'4 8.6
2017-Dec-03 13:30N 40°42' W 074°01'4 8.5
2017-Dec-03 13:00N 40°39' W 074°04'0 0.9
2017-Dec-03 12:31N 40°39' W 074°04'0 0.9
2017-Dec-03 12:00N 40°39' W 074°04'0 0.0
2017-Dec-03 11:30N 40°39' W 074°04'0 0.0
2017-Dec-03 10:59N 40°39' W 074°04'0 0.0
2017-Dec-03 10:29N 40°39' W 074°04'0 0.0
2017-Dec-03 09:59N 40°39' W 074°04'0 0.0
2017-Dec-03 09:30N 40°39' W 074°04'0 0.0
2017-Dec-03 08:59N 40°39' W 074°04'0 0.0
2017-Dec-03 08:29N 40°39' W 074°04'0 0.0
2017-Dec-03 07:59N 40°39' W 074°04'0 0.0
2017-Dec-03 07:29N 40°39' W 074°04'0 0.0
2017-Dec-03 06:53N 40°39' W 074°04'1 2.9
2017-Dec-03 06:30N 40°38' W 074°03'1 2.3
2017-Dec-03 06:00N 40°39' W 074°04'0 0.0
2017-Dec-03 05:30N 40°39' W 074°04'0 0.0
2017-Dec-03 05:00N 40°39' W 074°04'4 8.6
2017-Dec-03 04:30N 40°42' W 074°01'4 8.5
2017-Dec-03 04:00N 40°39' W 074°04'4 8.5
2017-Dec-03 03:30N 40°42' W 074°01'4 8.6
2017-Dec-03 03:01N 40°39' W 074°04'4 8.5
2017-Dec-03 02:30N 40°42' W 074°01'4 8.5
2017-Dec-03 02:00N 40°39' W 074°04'4 8.5
2017-Dec-03 01:30N 40°42' W 074°01'4 8.5
2017-Dec-03 01:01N 40°39' W 074°04'0 0.1
2017-Dec-03 00:31N 40°39' W 074°04'4 8.6
2017-Dec-03 00:01N 40°42' W 074°01'4 8.5
2017-Dec-02 23:31N 40°39' W 074°04'0 0.0
2017-Dec-02 23:01N 40°39' W 074°04'4 8.5
2017-Dec-02 22:30N 40°42' W 074°01'4 8.6
2017-Dec-02 22:01N 40°39' W 074°04'0 0.1
2017-Dec-02 21:31N 40°39' W 074°04'4 8.6
2017-Dec-02 21:01N 40°42' W 074°01'4 8.5
2017-Dec-02 20:30N 40°39' W 074°04'0 0.1
2017-Dec-02 20:01N 40°39' W 074°04'4 8.6
2017-Dec-02 19:31N 40°42' W 074°01'4 8.6
2017-Dec-02 19:01N 40°39' W 074°04'0 0.1
2017-Dec-02 18:30N 40°39' W 074°04'4 8.7
2017-Dec-02 18:01N 40°42' W 074°01'4 8.6
2017-Dec-02 17:31N 40°39' W 074°04'0 0.0
2017-Dec-02 17:00N 40°39' W 074°04'4 8.6
2017-Dec-02 16:31N 40°42' W 074°01'4 7.7
2017-Dec-02 15:57N 40°39' W 074°04'4 8.8
2017-Dec-02 15:28N 40°42' W 074°01'4 9.5
2017-Dec-02 15:00N 40°39' W 074°04'4 8.6
2017-Dec-02 14:30N 40°42' W 074°01'4 8.6
2017-Dec-02 14:00N 40°39' W 074°04'4 8.6
2017-Dec-02 13:30N 40°42' W 074°01'4 8.6
2017-Dec-02 13:00N 40°39' W 074°04'0 0.3
2017-Dec-02 12:30N 40°39' W 074°04'0 0.1
2017-Dec-02 12:00N 40°39' W 074°04'0 0.0
2017-Dec-02 11:30N 40°39' W 074°04'0 0.0
2017-Dec-02 10:59N 40°39' W 074°04'0 0.0
2017-Dec-02 10:29N 40°39' W 074°04'0 0.0
2017-Dec-02 09:59N 40°39' W 074°04'0 0.0
2017-Dec-02 09:29N 40°39' W 074°04'0 0.0
2017-Dec-02 08:59N 40°39' W 074°04'0 0.0
2017-Dec-02 08:29N 40°39' W 074°04'0 0.0
2017-Dec-02 07:59N 40°39' W 074°04'0 0.0
2017-Dec-02 07:29N 40°39' W 074°04'0 0.0
2017-Dec-02 06:59N 40°39' W 074°04'0 0.0
2017-Dec-02 06:29N 40°39' W 074°04'0 0.0
2017-Dec-02 05:59N 40°39' W 074°04'0 0.0
2017-Dec-02 05:29N 40°39' W 074°04'0 0.0
2017-Dec-02 04:59N 40°39' W 074°04'0 0.0
2017-Dec-02 04:29N 40°39' W 074°04'0 0.0
2017-Dec-02 03:59N 40°39' W 074°04'0 0.0
2017-Dec-02 03:29N 40°39' W 074°04'0 0.0
2017-Dec-02 02:59N 40°39' W 074°04'0 0.1
2017-Dec-02 02:30N 40°39' W 074°04'0 0.0
2017-Dec-02 02:00N 40°39' W 074°04'4 8.6
2017-Dec-02 01:30N 40°42' W 074°01'4 8.6
2017-Dec-02 01:00N 40°39' W 074°04'4 7.4
2017-Dec-02 00:31N 40°42' W 074°02'1 2.6
2017-Dec-02 00:00N 40°41' W 074°02'0 0.3
2017-Dec-01 23:30N 40°41' W 074°03'0 0.3
2017-Dec-01 23:00N 40°41' W 074°02'1 1.5
2017-Dec-01 22:30N 40°40' W 074°03'1 1.3
2017-Dec-01 22:00N 40°40' W 074°02'2 4.6
2017-Dec-01 21:30N 40°39' W 074°04'0 0.1
2017-Dec-01 21:00N 40°39' W 074°04'4 8.6
2017-Dec-01 20:30N 40°42' W 074°01'4 8.6
2017-Dec-01 20:00N 40°39' W 074°04'0 0.0
2017-Dec-01 19:30N 40°39' W 074°04'4 8.6
2017-Dec-01 19:00N 40°42' W 074°01'4 8.6
2017-Dec-01 18:30N 40°39' W 074°04'0 0.0
2017-Dec-01 18:00N 40°39' W 074°04'4 8.7
2017-Dec-01 17:30N 40°42' W 074°01'4 8.7
2017-Dec-01 17:00N 40°39' W 074°04'  
Track history (hours):
 
Tides and Currents Weather Stations Pressure Air Temp Water Temp Dewpoint Dewpoint Depression Visibility Wind Speed Wind Dir Waves Ship Positions

Guy V. Molinari

Owner: CITY OF NEW YORK, Brooklyn, NY. More information available from US FCC via Universal Licensing System and Coast Guard Vessel Documentation Center.

Last reported at 2017-Dec-11 17:00 UTC. Time now 2017-Dec-13 01:38 UTC.
Position N 40°39' W 074°04'.

Length 95 m; draft 4.1 m.

Type: Passenger vessel. MMSI: 366952790.

Date/timePositionNaut miles runAvg speedWind from/ knotsBaromVisibWave heightAir tempDewpointWater temp
2017-Dec-11 17:00N 40°39' W 074°04'4 8.6
2017-Dec-11 16:30N 40°42' W 074°01'4 8.6
2017-Dec-11 16:01N 40°39' W 074°04'0 0.0
2017-Dec-11 15:31N 40°39' W 074°04'4 8.6
2017-Dec-11 15:01N 40°42' W 074°01'4 8.6
2017-Dec-11 14:31N 40°39' W 074°04'2 4.7
2017-Dec-11 14:00N 40°41' W 074°02'0 0.7
2017-Dec-11 13:31N 40°41' W 074°02'1 2.9
2017-Dec-11 13:00N 40°40' W 074°03'2 3.3
2017-Dec-11 12:31N 40°41' W 074°02'3 5.8
2017-Dec-11 12:00N 40°39' W 074°04'4 8.6
2017-Dec-11 11:30N 40°42' W 074°01'4 8.6
2017-Dec-11 11:00N 40°39' W 074°04'0 0.2
2017-Dec-11 10:30N 40°39' W 074°04'0 0.0
2017-Dec-11 10:00N 40°39' W 074°04'0 0.0
2017-Dec-11 09:30N 40°39' W 074°04'0 0.0
2017-Dec-11 09:00N 40°39' W 074°04'0 0.0
2017-Dec-11 08:30N 40°39' W 074°04'0 0.0
2017-Dec-11 08:00N 40°39' W 074°04'0 0.0
2017-Dec-11 07:30N 40°39' W 074°04'0 0.0
2017-Dec-11 07:00N 40°39' W 074°04'0 0.0
2017-Dec-11 06:30N 40°39' W 074°04'0 0.0
2017-Dec-11 06:00N 40°39' W 074°04'0 0.0
2017-Dec-11 05:30N 40°39' W 074°04'0 0.0
2017-Dec-11 05:00N 40°39' W 074°04'0 0.0
2017-Dec-11 04:30N 40°39' W 074°04'0 0.0
2017-Dec-11 04:00N 40°39' W 074°04'0 0.0
2017-Dec-11 03:30N 40°39' W 074°04'0 0.0
2017-Dec-11 03:00N 40°39' W 074°04'0 0.0
2017-Dec-11 02:30N 40°39' W 074°04'0 0.0
2017-Dec-11 02:00N 40°39' W 074°04'0 0.0
2017-Dec-11 01:30N 40°39' W 074°04'0 0.0
2017-Dec-11 01:00N 40°39' W 074°04'0 0.0
2017-Dec-11 00:30N 40°39' W 074°04'0 0.0
2017-Dec-11 00:00N 40°39' W 074°04'0 0.0
2017-Dec-10 23:30N 40°39' W 074°04'0 0.0
2017-Dec-10 23:00N 40°39' W 074°04'0 0.0
2017-Dec-10 22:30N 40°39' W 074°04'0 0.0
2017-Dec-10 22:00N 40°39' W 074°04'0 0.0
2017-Dec-10 21:30N 40°39' W 074°04'0 0.0
2017-Dec-10 21:00N 40°39' W 074°04'0 0.0
2017-Dec-10 20:30N 40°39' W 074°04'0 0.0
2017-Dec-10 20:00N 40°39' W 074°04'0 0.0
2017-Dec-10 19:30N 40°39' W 074°04'0 0.0
2017-Dec-10 19:00N 40°39' W 074°04'0 0.0
2017-Dec-10 18:30N 40°39' W 074°04'0 0.0
2017-Dec-10 18:00N 40°39' W 074°04'0 0.0
2017-Dec-10 17:30N 40°39' W 074°04'0 0.0
2017-Dec-10 17:00N 40°39' W 074°04'0 0.0
2017-Dec-10 16:30N 40°39' W 074°04'0 0.0
2017-Dec-10 16:00N 40°39' W 074°04'0 0.0
2017-Dec-10 15:30N 40°39' W 074°04'0 0.0
2017-Dec-10 15:00N 40°39' W 074°04'0 0.0
2017-Dec-10 14:30N 40°39' W 074°04'0 0.0
2017-Dec-10 14:00N 40°39' W 074°04'0 0.0
2017-Dec-10 13:30N 40°39' W 074°04'0 0.0
2017-Dec-10 13:00N 40°39' W 074°04'0 0.0
2017-Dec-10 12:30N 40°39' W 074°04'0 0.0
2017-Dec-10 12:00N 40°39' W 074°04'0 0.0
2017-Dec-10 11:30N 40°39' W 074°04'0 0.0
2017-Dec-10 11:00N 40°39' W 074°04'0 0.0
2017-Dec-10 10:30N 40°39' W 074°04'0 0.0
2017-Dec-10 10:00N 40°39' W 074°04'0 0.0
2017-Dec-10 09:30N 40°39' W 074°04'0 0.0
2017-Dec-10 09:00N 40°39' W 074°04'0 0.0
2017-Dec-10 08:30N 40°39' W 074°04'0 0.0
2017-Dec-10 08:00N 40°39' W 074°04'0 0.0
2017-Dec-10 07:30N 40°39' W 074°04'0 0.0
2017-Dec-10 07:00N 40°39' W 074°04'0 0.0
2017-Dec-10 06:30N 40°39' W 074°04'0 0.0
2017-Dec-10 06:00N 40°39' W 074°04'0 0.0
2017-Dec-10 05:30N 40°39' W 074°04'0 0.0
2017-Dec-10 05:00N 40°39' W 074°04'0 0.0
2017-Dec-10 04:30N 40°39' W 074°04'0 0.0
2017-Dec-10 04:00N 40°39' W 074°04'0 0.0
2017-Dec-10 03:30N 40°39' W 074°04'0 0.0
2017-Dec-10 03:00N 40°39' W 074°04'0 0.0
2017-Dec-10 02:30N 40°39' W 074°04'0 0.0
2017-Dec-10 02:00N 40°39' W 074°04'0 0.0
2017-Dec-10 01:30N 40°39' W 074°04'0 0.0
2017-Dec-10 01:00N 40°39' W 074°04'0 0.0
2017-Dec-10 00:30N 40°39' W 074°04'0 0.0
2017-Dec-10 00:00N 40°39' W 074°04'0 0.0
2017-Dec-09 23:30N 40°39' W 074°04'0 0.0
2017-Dec-09 23:00N 40°39' W 074°04'0 0.0
2017-Dec-09 22:30N 40°39' W 074°04'0 0.0
2017-Dec-09 22:00N 40°39' W 074°04'0 0.0
2017-Dec-09 21:30N 40°39' W 074°04'0 0.0
2017-Dec-09 21:00N 40°39' W 074°04'0 0.0
2017-Dec-09 20:30N 40°39' W 074°04'0 0.0
2017-Dec-09 20:00N 40°39' W 074°04'0 0.0
2017-Dec-09 19:30N 40°39' W 074°04'0 0.0
2017-Dec-09 19:00N 40°39' W 074°04'0 0.0
2017-Dec-09 18:30N 40°39' W 074°04'0 0.0
2017-Dec-09 18:00N 40°39' W 074°04'0 0.0
2017-Dec-09 17:30N 40°39' W 074°04'0 0.0
2017-Dec-09 17:00N 40°39' W 074°04'0 0.0
2017-Dec-09 16:30N 40°39' W 074°04'0 0.0
2017-Dec-09 16:00N 40°39' W 074°04'0 0.0
2017-Dec-09 15:30N 40°39' W 074°04'0 0.0
2017-Dec-09 15:00N 40°39' W 074°04'0 0.0
2017-Dec-09 14:30N 40°39' W 074°04'0 0.0
2017-Dec-09 14:00N 40°39' W 074°04'0 0.0
2017-Dec-09 13:30N 40°39' W 074°04'0 0.0
2017-Dec-09 13:00N 40°39' W 074°04'0 0.0
2017-Dec-09 12:30N 40°39' W 074°04'0 0.0
2017-Dec-09 12:00N 40°39' W 074°04'0 0.0
2017-Dec-09 11:30N 40°39' W 074°04'0 0.0
2017-Dec-09 11:00N 40°39' W 074°04'0 0.0
2017-Dec-09 10:30N 40°39' W 074°04'0 0.0
2017-Dec-09 10:00N 40°39' W 074°04'0 0.0
2017-Dec-09 09:30N 40°39' W 074°04'0 0.0
2017-Dec-09 09:00N 40°39' W 074°04'0 0.0
2017-Dec-09 08:30N 40°39' W 074°04'0 0.0
2017-Dec-09 08:00N 40°39' W 074°04'0 0.0
2017-Dec-09 07:30N 40°39' W 074°04'0 0.0
2017-Dec-09 07:00N 40°39' W 074°04'0 0.0
2017-Dec-09 06:30N 40°39' W 074°04'0 0.0
2017-Dec-09 06:00N 40°39' W 074°04'0 0.0
2017-Dec-09 05:30N 40°39' W 074°04'0 0.0
2017-Dec-09 05:00N 40°39' W 074°04'0 0.0
2017-Dec-09 04:30N 40°39' W 074°04'0 0.0
2017-Dec-09 04:00N 40°39' W 074°04'0 0.0
2017-Dec-09 03:30N 40°39' W 074°04'0 0.1
2017-Dec-09 01:57N 40°39' W 074°04'4 9.5
2017-Dec-09 01:31N 40°42' W 074°01'4 8.5
2017-Dec-09 01:00N 40°39' W 074°04'3 5.2
2017-Dec-09 00:30N 40°41' W 074°02'0 0.6
2017-Dec-09 00:01N 40°41' W 074°02'1 2.6
2017-Dec-08 23:31N 40°40' W 074°03'2 3.1
2017-Dec-08 23:00N 40°41' W 074°02'2 3.5
2017-Dec-08 22:31N 40°40' W 074°03'1 1.8
2017-Dec-08 22:01N 40°40' W 074°02'2 4.6
2017-Dec-08 21:30N 40°39' W 074°04'0 0.0
2017-Dec-08 21:00N 40°39' W 074°04'4 8.6
2017-Dec-08 20:30N 40°42' W 074°01'4 8.6
2017-Dec-08 20:00N 40°39' W 074°04'0 0.5
2017-Dec-08 19:31N 40°39' W 074°04'0 0.7
2017-Dec-08 19:01N 40°39' W 074°04'0 0.0
2017-Dec-08 18:30N 40°39' W 074°04'0 0.0
2017-Dec-08 18:01N 40°39' W 074°04'0 0.0
2017-Dec-08 17:31N 40°39' W 074°04'0 0.0
2017-Dec-08 17:00N 40°39' W 074°04'0 0.0
2017-Dec-08 16:30N 40°39' W 074°04'0 0.0
2017-Dec-08 16:01N 40°39' W 074°04'0 0.0
2017-Dec-08 15:30N 40°39' W 074°04'0 0.0
2017-Dec-08 15:00N 40°39' W 074°04'0 0.2
2017-Dec-08 14:30N 40°39' W 074°04'2 4.0
2017-Dec-08 14:00N 40°40' W 074°03'1 1.3
2017-Dec-08 13:30N 40°41' W 074°02'1 2.0
2017-Dec-08 13:01N 40°40' W 074°03'1 2.2
2017-Dec-08 12:31N 40°41' W 074°02'3 5.5
2017-Dec-08 12:01N 40°39' W 074°04'4 8.6
2017-Dec-08 11:30N 40°42' W 074°01'4 8.5
2017-Dec-08 11:00N 40°39' W 074°04'0 0.1
2017-Dec-08 10:30N 40°39' W 074°04'0 0.0
2017-Dec-08 10:00N 40°39' W 074°04'0 0.0
2017-Dec-08 09:30N 40°39' W 074°04'0 0.0
2017-Dec-08 09:00N 40°39' W 074°04'0 0.0
2017-Dec-08 08:28N 40°39' W 074°04'0 0.0
2017-Dec-08 07:58N 40°39' W 074°04'0 0.0
2017-Dec-08 07:28N 40°39' W 074°04'0 0.0
2017-Dec-08 06:58N 40°39' W 074°04'0 0.0
2017-Dec-08 06:28N 40°39' W 074°04'0 0.0
2017-Dec-08 05:58N 40°39' W 074°04'0 0.0
2017-Dec-08 05:28N 40°39' W 074°04'0 0.0
2017-Dec-08 04:58N 40°39' W 074°04'0 0.0
2017-Dec-08 04:28N 40°39' W 074°04'0 0.0
2017-Dec-08 03:58N 40°39' W 074°04'0 0.0
2017-Dec-08 03:28N 40°39' W 074°04'0 0.0
2017-Dec-08 02:58N 40°39' W 074°04'0 0.0
2017-Dec-08 02:30N 40°39' W 074°04'0 0.0
2017-Dec-08 02:00N 40°39' W 074°04'4 8.6
2017-Dec-08 01:30N 40°42' W 074°01'4 8.6
2017-Dec-08 01:00N 40°39' W 074°04'3 5.4
2017-Dec-08 00:30N 40°41' W 074°02'1 1.1
2017-Dec-08 00:00N 40°41' W 074°02'2 4.5
2017-Dec-07 23:30N 40°39' W 074°03'2 4.0
2017-Dec-07 23:00N 40°41' W 074°02'2 4.0
2017-Dec-07 22:30N 40°39' W 074°03'2 3.3
2017-Dec-07 22:00N 40°41' W 074°02'3 5.3
2017-Dec-07 21:30N 40°39' W 074°04'0 0.0
2017-Dec-07 21:00N 40°39' W 074°04'4 8.5
2017-Dec-07 20:30N 40°42' W 074°01'4 8.6
2017-Dec-07 20:01N 40°39' W 074°04'0 0.0
2017-Dec-07 19:31N 40°39' W 074°04'4 8.6
2017-Dec-07 19:01N 40°42' W 074°01'4 8.6
2017-Dec-07 18:30N 40°39' W 074°04'0 0.1
2017-Dec-07 18:01N 40°39' W 074°04'4 8.7
2017-Dec-07 17:30N 40°42' W 074°01'4 8.6
2017-Dec-07 17:00N 40°39' W 074°04'0 0.0
2017-Dec-07 16:30N 40°39' W 074°04'0 0.0
2017-Dec-07 16:00N 40°39' W 074°04'0 0.0
2017-Dec-07 15:30N 40°39' W 074°04'0 0.0
2017-Dec-07 15:00N 40°39' W 074°04'0 0.0
2017-Dec-07 14:30N 40°39' W 074°04'2 3.9
2017-Dec-07 14:01N 40°40' W 074°03'1 1.5
2017-Dec-07 13:31N 40°41' W 074°02'1 1.6
2017-Dec-07 13:00N 40°40' W 074°03'1 2.2
2017-Dec-07 12:30N 40°41' W 074°02'3 6.0
2017-Dec-07 12:00N 40°39' W 074°04'4 8.6
2017-Dec-07 11:30N 40°42' W 074°01'4 8.5
2017-Dec-07 11:00N 40°39' W 074°04'0 0.0
2017-Dec-07 10:30N 40°39' W 074°04'0 0.0
2017-Dec-07 10:00N 40°39' W 074°04'0 0.1
2017-Dec-07 09:30N 40°39' W 074°04'0 0.0
2017-Dec-07 09:00N 40°39' W 074°04'0 0.0
2017-Dec-07 08:30N 40°39' W 074°04'0 0.0
2017-Dec-07 08:00N 40°39' W 074°04'0 0.1
2017-Dec-07 07:30N 40°39' W 074°04'0 0.1
2017-Dec-07 06:59N 40°39' W 074°04'0 0.0
2017-Dec-07 06:29N 40°39' W 074°04'0 0.0
2017-Dec-07 05:59N 40°39' W 074°04'0 0.0
2017-Dec-07 05:29N 40°39' W 074°04'0 0.0
2017-Dec-07 04:59N 40°39' W 074°04'0 0.0
2017-Dec-07 04:29N 40°39' W 074°04'0 0.0
2017-Dec-07 03:59N 40°39' W 074°04'0 0.0
2017-Dec-07 03:29N 40°39' W 074°04'0 0.0
2017-Dec-07 02:59N 40°39' W 074°04'0 0.0
2017-Dec-07 02:30N 40°39' W 074°04'0 0.0
2017-Dec-07 02:00N 40°39' W 074°04'4 8.5
2017-Dec-07 01:30N 40°42' W 074°01'4 8.5
2017-Dec-07 01:00N 40°39' W 074°04'3 5.7
2017-Dec-07 00:30N 40°41' W 074°02'0 0.9
2017-Dec-07 00:01N 40°41' W 074°02'1 3.0
2017-Dec-06 23:31N 40°40' W 074°03'1 2.4
2017-Dec-06 23:01N 40°41' W 074°02'2 3.8
2017-Dec-06 22:31N 40°40' W 074°03'2 3.1
2017-Dec-06 22:01N 40°41' W 074°02'3 5.3
2017-Dec-06 21:30N 40°39' W 074°04'0 0.0
2017-Dec-06 21:00N 40°39' W 074°04'  
2017-Dec-04 08:35N 40°39' W 074°04'0 0.0
2017-Dec-04 08:31N 40°39' W 074°04'0 0.0
2017-Dec-04 08:00N 40°39' W 074°04'0 0.0
2017-Dec-04 07:30N 40°39' W 074°04'0 0.0
2017-Dec-04 07:00N 40°39' W 074°04'0 0.0
2017-Dec-04 06:31N 40°39' W 074°04'0 0.0
2017-Dec-04 04:53N 40°39' W 074°04'411.2
2017-Dec-04 04:30N 40°42' W 074°01'4 8.6
2017-Dec-04 04:01N 40°39' W 074°04'4 8.5
2017-Dec-04 03:30N 40°42' W 074°01'4 8.5
2017-Dec-04 03:00N 40°39' W 074°04'4 8.5
2017-Dec-04 02:31N 40°42' W 074°01'4 7.5
2017-Dec-04 01:56N 40°39' W 074°04'410.0
2017-Dec-04 01:30N 40°42' W 074°01'4 8.5
2017-Dec-04 01:00N 40°39' W 074°04'0 0.1
2017-Dec-04 00:30N 40°39' W 074°04'4 8.6
2017-Dec-04 00:01N 40°42' W 074°01'4 8.6
2017-Dec-03 23:30N 40°39' W 074°04'0 0.0
2017-Dec-03 23:00N 40°39' W 074°04'4 8.6
2017-Dec-03 22:30N 40°42' W 074°01'4 8.6
2017-Dec-03 22:00N 40°39' W 074°04'0 0.0
2017-Dec-03 21:30N 40°39' W 074°04'4 8.6
2017-Dec-03 21:01N 40°42' W 074°01'4 8.5
2017-Dec-03 20:30N 40°39' W 074°04'0 0.0
2017-Dec-03 19:53N 40°39' W 074°04'4 9.5
2017-Dec-03 19:26N 40°42' W 074°01'410.2
2017-Dec-03 19:00N 40°39' W 074°04'0 0.1
2017-Dec-03 18:30N 40°39' W 074°04'4 8.7
2017-Dec-03 18:00N 40°42' W 074°01'4 8.6
2017-Dec-03 17:30N 40°39' W 074°04'0 0.1
2017-Dec-03 17:00N 40°39' W 074°04'4 8.6
2017-Dec-03 16:31N 40°42' W 074°01'4 7.3
2017-Dec-03 15:55N 40°39' W 074°04'410.2
2017-Dec-03 15:30N 40°42' W 074°01'4 8.6
2017-Dec-03 15:01N 40°39' W 074°04'4 8.6
2017-Dec-03 14:30N 40°42' W 074°01'4 8.6
2017-Dec-03 14:00N 40°39' W 074°04'4 8.6
2017-Dec-03 13:30N 40°42' W 074°01'4 8.5
2017-Dec-03 13:00N 40°39' W 074°04'0 0.9
2017-Dec-03 12:31N 40°39' W 074°04'0 0.9
2017-Dec-03 12:00N 40°39' W 074°04'0 0.0
2017-Dec-03 11:30N 40°39' W 074°04'0 0.0
2017-Dec-03 10:59N 40°39' W 074°04'0 0.0
2017-Dec-03 10:29N 40°39' W 074°04'0 0.0
2017-Dec-03 09:59N 40°39' W 074°04'0 0.0
2017-Dec-03 09:30N 40°39' W 074°04'0 0.0
2017-Dec-03 08:59N 40°39' W 074°04'0 0.0
2017-Dec-03 08:29N 40°39' W 074°04'0 0.0
2017-Dec-03 07:59N 40°39' W 074°04'0 0.0
2017-Dec-03 07:29N 40°39' W 074°04'0 0.0
2017-Dec-03 06:53N 40°39' W 074°04'1 2.9
2017-Dec-03 06:30N 40°38' W 074°03'1 2.3
2017-Dec-03 06:00N 40°39' W 074°04'0 0.0
2017-Dec-03 05:30N 40°39' W 074°04'0 0.0
2017-Dec-03 05:00N 40°39' W 074°04'4 8.6
2017-Dec-03 04:30N 40°42' W 074°01'4 8.5
2017-Dec-03 04:00N 40°39' W 074°04'4 8.5
2017-Dec-03 03:30N 40°42' W 074°01'4 8.6
2017-Dec-03 03:01N 40°39' W 074°04'4 8.5
2017-Dec-03 02:30N 40°42' W 074°01'4 8.5
2017-Dec-03 02:00N 40°39' W 074°04'4 8.5
2017-Dec-03 01:30N 40°42' W 074°01'4 8.5
2017-Dec-03 01:01N 40°39' W 074°04'0 0.1
2017-Dec-03 00:31N 40°39' W 074°04'4 8.6
2017-Dec-03 00:01N 40°42' W 074°01'4 8.5
2017-Dec-02 23:31N 40°39' W 074°04'0 0.0
2017-Dec-02 23:01N 40°39' W 074°04'4 8.5
2017-Dec-02 22:30N 40°42' W 074°01'4 8.6
2017-Dec-02 22:01N 40°39' W 074°04'0 0.1
2017-Dec-02 21:31N 40°39' W 074°04'4 8.6
2017-Dec-02 21:01N 40°42' W 074°01'4 8.5
2017-Dec-02 20:30N 40°39' W 074°04'0 0.1
2017-Dec-02 20:01N 40°39' W 074°04'4 8.6
2017-Dec-02 19:31N 40°42' W 074°01'4 8.6
2017-Dec-02 19:01N 40°39' W 074°04'0 0.1
2017-Dec-02 18:30N 40°39' W 074°04'4 8.7
2017-Dec-02 18:01N 40°42' W 074°01'4 8.6
2017-Dec-02 17:31N 40°39' W 074°04'0 0.0
2017-Dec-02 17:00N 40°39' W 074°04'4 8.6
2017-Dec-02 16:31N 40°42' W 074°01'4 7.7
2017-Dec-02 15:57N 40°39' W 074°04'4 8.8
2017-Dec-02 15:28N 40°42' W 074°01'4 9.5
2017-Dec-02 15:00N 40°39' W 074°04'4 8.6
2017-Dec-02 14:30N 40°42' W 074°01'4 8.6
2017-Dec-02 14:00N 40°39' W 074°04'4 8.6
2017-Dec-02 13:30N 40°42' W 074°01'4 8.6
2017-Dec-02 13:00N 40°39' W 074°04'0 0.3
2017-Dec-02 12:30N 40°39' W 074°04'0 0.1
2017-Dec-02 12:00N 40°39' W 074°04'0 0.0
2017-Dec-02 11:30N 40°39' W 074°04'0 0.0
2017-Dec-02 10:59N 40°39' W 074°04'0 0.0
2017-Dec-02 10:29N 40°39' W 074°04'0 0.0
2017-Dec-02 09:59N 40°39' W 074°04'0 0.0
2017-Dec-02 09:29N 40°39' W 074°04'0 0.0
2017-Dec-02 08:59N 40°39' W 074°04'0 0.0
2017-Dec-02 08:29N 40°39' W 074°04'0 0.0
2017-Dec-02 07:59N 40°39' W 074°04'0 0.0
2017-Dec-02 07:29N 40°39' W 074°04'0 0.0
2017-Dec-02 06:59N 40°39' W 074°04'0 0.0
2017-Dec-02 06:29N 40°39' W 074°04'0 0.0
2017-Dec-02 05:59N 40°39' W 074°04'0 0.0
2017-Dec-02 05:29N 40°39' W 074°04'0 0.0
2017-Dec-02 04:59N 40°39' W 074°04'0 0.0
2017-Dec-02 04:29N 40°39' W 074°04'0 0.0
2017-Dec-02 03:59N 40°39' W 074°04'0 0.0
2017-Dec-02 03:29N 40°39' W 074°04'0 0.0
2017-Dec-02 02:59N 40°39' W 074°04'0 0.1
2017-Dec-02 02:30N 40°39' W 074°04'0 0.0
2017-Dec-02 02:00N 40°39' W 074°04'4 8.6
2017-Dec-02 01:30N 40°42' W 074°01'4 8.6
2017-Dec-02 01:00N 40°39' W 074°04'4 7.4
2017-Dec-02 00:31N 40°42' W 074°02'1 2.6
2017-Dec-02 00:00N 40°41' W 074°02'0 0.3
2017-Dec-01 23:30N 40°41' W 074°03'0 0.3
2017-Dec-01 23:00N 40°41' W 074°02'1 1.5
2017-Dec-01 22:30N 40°40' W 074°03'1 1.3
2017-Dec-01 22:00N 40°40' W 074°02'2 4.6
2017-Dec-01 21:30N 40°39' W 074°04'0 0.1
2017-Dec-01 21:00N 40°39' W 074°04'4 8.6
2017-Dec-01 20:30N 40°42' W 074°01'4 8.6
2017-Dec-01 20:00N 40°39' W 074°04'0 0.0
2017-Dec-01 19:30N 40°39' W 074°04'4 8.6
2017-Dec-01 19:00N 40°42' W 074°01'4 8.6
2017-Dec-01 18:30N 40°39' W 074°04'0 0.0
2017-Dec-01 18:00N 40°39' W 074°04'4 8.7
2017-Dec-01 17:30N 40°42' W 074°01'4 8.7
2017-Dec-01 17:00N 40°39' W 074°04'  

Dump ship's entire track history